createdAt,value
2018-08-06T00:00:39.216Z,2.30
2018-08-06T00:03:10.096Z,1.90
2018-08-06T00:05:40.291Z,1.50
2018-08-06T00:08:10.537Z,1.70
2018-08-06T00:10:40.724Z,2.40
2018-08-06T00:13:10.924Z,2.00
2018-08-06T00:15:41.131Z,2.20
2018-08-06T00:18:11.264Z,2.10
2018-08-06T00:20:41.448Z,2.07
2018-08-06T00:23:12.369Z,2.70
2018-08-06T00:25:42.446Z,2.60
2018-08-06T00:28:12.626Z,2.30
2018-08-06T00:30:43.217Z,2.97
2018-08-06T00:33:13.340Z,2.37
2018-08-06T00:35:43.581Z,2.23
2018-08-06T00:38:13.753Z,2.73
2018-08-06T00:40:43.874Z,2.43
2018-08-06T00:43:13.978Z,2.57
2018-08-06T00:45:44.235Z,2.30
2018-08-06T00:48:14.340Z,2.23
2018-08-06T00:50:44.975Z,2.43
2018-08-06T00:53:15.101Z,2.33
2018-08-06T00:55:45.141Z,2.30
2018-08-06T00:58:15.245Z,2.23
2018-08-06T01:00:45.373Z,2.80
2018-08-06T01:03:15.541Z,2.40
2018-08-06T01:05:45.677Z,2.73
2018-08-06T01:08:15.775Z,3.00
2018-08-06T01:10:45.903Z,2.37
2018-08-06T01:13:16.164Z,2.27
2018-08-06T01:15:46.253Z,2.80
2018-08-06T01:18:16.336Z,2.80
2018-08-06T01:20:46.503Z,2.40
2018-08-06T01:23:16.717Z,2.43
2018-08-06T01:25:46.847Z,2.83
2018-08-06T01:28:17.532Z,2.73
2018-08-06T01:30:47.657Z,2.73
2018-08-06T01:33:18.415Z,3.10
2018-08-06T01:35:48.712Z,2.63
2018-08-06T01:38:18.891Z,3.00
2018-08-06T01:40:49.339Z,2.60
2018-08-06T01:43:19.690Z,2.50
2018-08-06T01:45:49.739Z,2.77
2018-08-06T01:48:19.897Z,2.93
2018-08-06T01:50:50.019Z,2.67
2018-08-06T01:53:20.138Z,2.70
2018-08-06T01:55:50.329Z,2.50
2018-08-06T01:58:20.459Z,2.63
2018-08-06T02:00:50.577Z,2.70
2018-08-06T02:03:20.737Z,2.90
2018-08-06T02:05:50.790Z,2.47
2018-08-06T02:08:20.942Z,2.47
2018-08-06T02:10:51.102Z,2.80
2018-08-06T02:13:21.315Z,2.73
2018-08-06T02:15:51.402Z,2.60
2018-08-06T02:18:22.031Z,2.70
2018-08-06T02:20:52.217Z,3.03
2018-08-06T02:23:23.148Z,2.80
2018-08-06T02:25:53.500Z,2.90
2018-08-06T02:28:23.676Z,2.77
2018-08-06T02:30:53.783Z,3.03
2018-08-06T02:33:24.051Z,2.80
2018-08-06T02:35:54.239Z,2.80
2018-08-06T02:38:24.396Z,2.97
2018-08-06T02:40:54.568Z,2.70
2018-08-06T02:43:24.695Z,3.13
2018-08-06T02:45:54.918Z,3.30
2018-08-06T02:48:25.112Z,3.57
2018-08-06T02:50:55.188Z,3.27
2018-08-06T02:53:25.316Z,3.53
2018-08-06T02:55:55.474Z,3.83
2018-08-06T02:58:25.666Z,3.23
2018-08-06T03:00:55.888Z,3.50
2018-08-06T03:03:26.049Z,3.27
2018-08-06T03:05:56.126Z,3.10
2018-08-06T03:08:26.287Z,2.90
2018-08-06T03:10:56.512Z,2.80
2018-08-06T03:13:26.670Z,2.97
2018-08-06T03:15:56.841Z,2.97
2018-08-06T03:18:27.064Z,3.23
2018-08-06T03:20:57.196Z,3.00
2018-08-06T03:23:27.478Z,3.10
2018-08-06T03:25:57.626Z,3.30
2018-08-06T03:28:27.853Z,3.20
2018-08-06T03:30:58.114Z,3.20
2018-08-06T03:33:28.208Z,3.33
2018-08-06T03:35:58.329Z,2.80
2018-08-06T03:38:28.660Z,2.77
2018-08-06T03:40:58.827Z,3.30
2018-08-06T03:43:28.889Z,3.17
2018-08-06T03:45:59.008Z,3.40
2018-08-06T03:48:29.112Z,3.20
2018-08-06T03:50:59.324Z,3.40
2018-08-06T03:53:29.573Z,3.30
2018-08-06T03:55:59.707Z,3.13
2018-08-06T03:58:29.775Z,3.27
2018-08-06T04:00:59.968Z,3.20
2018-08-06T04:03:30.213Z,3.30
2018-08-06T04:06:00.323Z,3.47
2018-08-06T04:08:30.940Z,3.80
2018-08-06T04:11:01.099Z,3.23
2018-08-06T04:13:31.296Z,3.03
2018-08-06T04:16:01.432Z,3.23
2018-08-06T04:18:31.628Z,3.83
2018-08-06T04:21:01.816Z,3.10
2018-08-06T04:23:32.006Z,3.20
2018-08-06T04:26:02.365Z,3.77
2018-08-06T04:28:32.550Z,3.70
2018-08-06T04:31:03.488Z,3.47
2018-08-06T04:33:33.608Z,3.37
2018-08-06T04:36:03.752Z,3.30
2018-08-06T04:38:34.021Z,3.93
2018-08-06T04:41:04.126Z,3.30
2018-08-06T04:43:34.276Z,3.87
2018-08-06T04:46:04.482Z,3.60
2018-08-06T04:48:34.764Z,3.73
2018-08-06T04:51:05.009Z,4.00
2018-08-06T04:53:35.106Z,3.70
2018-08-06T04:56:05.288Z,3.80
2018-08-06T04:58:35.406Z,3.63
2018-08-06T05:01:05.643Z,3.60
2018-08-06T05:03:35.809Z,3.57
2018-08-06T05:06:06.216Z,3.70
2018-08-06T05:08:36.424Z,3.87
2018-08-06T05:11:06.568Z,3.40
2018-08-06T05:13:36.810Z,3.70
2018-08-06T05:16:06.840Z,3.93
2018-08-06T05:18:36.897Z,4.13
2018-08-06T05:21:07.098Z,4.27
2018-08-06T05:23:59.257Z,4.17
2018-08-06T05:26:30.248Z,4.50
2018-08-06T05:29:00.411Z,4.17
2018-08-06T05:31:30.587Z,4.40
2018-08-06T05:34:00.772Z,3.93
2018-08-06T05:36:30.877Z,3.67
2018-08-06T05:39:01.021Z,3.90
2018-08-06T05:41:31.575Z,3.67
2018-08-06T05:44:01.697Z,3.07
2018-08-06T05:46:31.815Z,3.37
2018-08-06T05:49:02.028Z,3.27
2018-08-06T05:51:32.208Z,4.13
2018-08-06T05:54:02.958Z,3.80
2018-08-06T05:56:33.108Z,3.50
2018-08-06T05:59:03.237Z,3.47
2018-08-06T06:01:33.349Z,3.57
2018-08-06T06:04:03.584Z,3.20
2018-08-06T06:06:33.826Z,3.27
2018-08-06T06:09:05.046Z,3.20
2018-08-06T06:11:35.725Z,3.53
2018-08-06T06:14:06.971Z,3.27
2018-08-06T06:16:37.180Z,2.47
2018-08-06T06:19:07.383Z,2.97
2018-08-06T06:21:37.439Z,3.57
2018-08-06T06:24:07.688Z,3.40
2018-08-06T06:26:37.768Z,3.67
2018-08-06T06:29:07.899Z,2.93
2018-08-06T06:31:38.113Z,3.10
2018-08-06T06:34:08.268Z,3.10
2018-08-06T06:36:38.391Z,2.90
2018-08-06T06:39:11.451Z,3.03
2018-08-06T06:41:42.214Z,2.90
2018-08-06T06:44:12.299Z,3.00
2018-08-06T06:46:42.458Z,3.13
2018-08-06T06:49:12.626Z,3.00
2018-08-06T06:51:42.698Z,3.10
2018-08-06T06:54:13.452Z,2.70
2018-08-06T06:56:43.665Z,3.00
2018-08-06T06:59:13.973Z,2.70
2018-08-06T07:01:44.025Z,2.53
2018-08-06T07:04:14.314Z,3.13
2018-08-06T07:06:44.350Z,2.67
2018-08-06T07:09:14.478Z,2.60
2018-08-06T07:11:44.688Z,3.30
2018-08-06T07:14:14.935Z,2.67
2018-08-06T07:16:45.089Z,2.93
2018-08-06T07:19:15.177Z,2.90
2018-08-06T07:21:45.412Z,2.97
2018-08-06T07:24:15.534Z,2.67
2018-08-06T07:26:45.744Z,2.80
2018-08-06T07:29:15.906Z,2.80
2018-08-06T07:31:46.468Z,2.20
2018-08-06T07:34:16.624Z,2.70
2018-08-06T07:36:46.840Z,1.83
2018-08-06T07:39:17.017Z,2.17
2018-08-06T07:41:46.851Z,2.47
2018-08-06T07:44:16.973Z,2.20
2018-08-06T07:46:47.242Z,2.00
2018-08-06T07:49:17.321Z,2.10
2018-08-06T07:51:47.395Z,1.93
2018-08-06T07:54:17.606Z,1.90
2018-08-06T07:56:47.877Z,2.30
2018-08-06T07:59:18.004Z,1.77
2018-08-06T08:01:48.143Z,1.80
2018-08-06T08:04:18.455Z,2.20
2018-08-06T08:06:48.681Z,1.90
2018-08-06T08:09:18.851Z,1.43
2018-08-06T08:11:49.039Z,1.40
2018-08-06T08:14:19.551Z,1.00
2018-08-06T08:16:49.751Z,1.40
2018-08-06T08:19:19.923Z,2.23
2018-08-06T08:21:50.849Z,1.67
2018-08-06T08:24:20.992Z,1.70
2018-08-06T08:26:51.411Z,1.50
2018-08-06T08:29:22.195Z,1.23
2018-08-06T08:31:52.415Z,1.00
2018-08-06T08:34:22.907Z,1.10
2018-08-06T08:36:53.021Z,1.03
2018-08-06T08:39:23.219Z,0.97
2018-08-06T08:41:53.455Z,0.73
2018-08-06T08:44:24.431Z,0.80
2018-08-06T08:46:54.590Z,1.63
2018-08-06T08:49:25.397Z,1.03
2018-08-06T08:51:55.920Z,1.00
2018-08-06T08:54:26.528Z,2.10
2018-08-06T08:56:56.622Z,1.80
2018-08-06T08:59:26.767Z,2.20
2018-08-06T09:01:56.857Z,2.20
2018-08-06T09:04:27.381Z,2.50
2018-08-06T09:06:57.587Z,2.63
2018-08-06T09:09:27.669Z,2.50
2018-08-06T09:11:57.751Z,2.20
2018-08-06T09:14:27.879Z,2.17
2018-08-06T09:16:58.055Z,2.03
2018-08-06T09:19:28.255Z,1.70
2018-08-06T09:21:58.595Z,2.33
2018-08-06T09:24:29.313Z,2.10
2018-08-06T09:26:59.174Z,2.40
2018-08-06T09:29:29.313Z,2.30
2018-08-06T09:31:59.477Z,2.30
2018-08-06T09:34:29.791Z,2.40
2018-08-06T09:36:59.930Z,2.27
2018-08-06T09:39:30.169Z,1.67
2018-08-06T09:42:00.423Z,1.70
2018-08-06T09:44:30.773Z,1.60
2018-08-06T09:47:01.139Z,1.50
2018-08-06T09:49:32.104Z,1.47
2018-08-06T09:52:02.180Z,1.27
2018-08-06T09:54:51.041Z,1.00
2018-08-06T09:57:21.227Z,1.20
2018-08-06T09:59:52.405Z,0.97
2018-08-06T10:02:22.333Z,1.00
2018-08-06T10:04:52.376Z,0.90
2018-08-06T10:07:22.545Z,0.80
2018-08-06T10:09:52.719Z,0.73
2018-08-06T10:12:22.866Z,0.60
2018-08-06T10:14:53.108Z,1.40
2018-08-06T10:17:23.371Z,1.47
2018-08-06T10:20:05.541Z,1.37
2018-08-06T10:22:35.620Z,1.20
2018-08-06T10:25:07.312Z,0.90
2018-08-06T10:27:37.982Z,0.97
2018-08-06T10:30:13.410Z,0.90
2018-08-06T10:32:44.000Z,0.80
2018-08-06T10:35:15.378Z,1.03
2018-08-06T10:37:45.706Z,1.27
2018-08-06T10:40:18.443Z,0.97
2018-08-06T10:42:49.564Z,1.27
2018-08-06T10:45:22.807Z,1.10
2018-08-06T10:47:53.307Z,1.27
2018-08-06T10:50:23.566Z,1.10
2018-08-06T10:52:53.704Z,1.03
2018-08-06T10:55:23.889Z,1.20
2018-08-06T10:57:54.040Z,1.90
2018-08-06T11:00:24.561Z,1.63
2018-08-06T11:02:55.082Z,2.00
2018-08-06T11:05:25.151Z,1.83
2018-08-06T11:07:55.233Z,1.73
2018-08-06T11:10:25.458Z,1.30
2018-08-06T11:12:55.610Z,1.43
2018-08-06T11:15:26.826Z,0.90
2018-08-06T11:17:56.955Z,0.90
2018-08-06T11:20:27.104Z,1.10
2018-08-06T11:22:57.239Z,1.40
2018-08-06T11:25:27.388Z,1.93
2018-08-06T11:27:57.528Z,1.20
2018-08-06T11:30:27.613Z,1.20
2018-08-06T11:32:57.724Z,0.97
2018-08-06T11:35:27.919Z,1.10
2018-08-06T11:37:58.142Z,1.03
2018-08-06T11:40:28.250Z,1.50
2018-08-06T11:42:58.397Z,1.40
2018-08-06T11:45:28.524Z,2.10
2018-08-06T11:47:58.578Z,1.57
2018-08-06T11:50:28.725Z,1.43
2018-08-06T11:52:58.871Z,1.30
2018-08-06T11:55:28.992Z,1.90
2018-08-06T11:57:59.116Z,1.63
2018-08-06T12:00:29.308Z,1.53
2018-08-06T12:02:59.526Z,1.53
2018-08-06T12:05:29.669Z,1.23
2018-08-06T12:07:59.839Z,1.33
2018-08-06T12:10:29.998Z,1.50
2018-08-06T12:13:00.066Z,1.47
2018-08-06T12:15:30.257Z,1.10
2018-08-06T12:18:00.321Z,1.50
2018-08-06T12:20:30.951Z,1.27
2018-08-06T12:23:01.100Z,1.23
2018-08-06T12:25:32.097Z,0.80
2018-08-06T12:28:02.423Z,1.30
2018-08-06T12:30:32.653Z,1.20
2018-08-06T12:33:02.828Z,1.33
2018-08-06T12:35:32.920Z,1.07
2018-08-06T12:38:03.082Z,0.80
2018-08-06T12:40:33.242Z,1.00
2018-08-06T12:43:03.308Z,1.10
2018-08-06T12:45:33.436Z,1.10
2018-08-06T12:48:03.674Z,1.13
2018-08-06T12:50:33.891Z,1.10
2018-08-06T12:53:04.096Z,1.00
2018-08-06T12:55:34.211Z,0.80
2018-08-06T12:58:04.309Z,1.10
2018-08-06T13:00:34.487Z,0.67
2018-08-06T13:03:04.655Z,0.70
2018-08-06T13:05:34.789Z,0.70
2018-08-06T13:08:05.009Z,0.67
2018-08-06T13:10:35.160Z,1.10
2018-08-06T13:13:05.264Z,0.83
2018-08-06T13:15:35.489Z,1.67
2018-08-06T13:18:06.184Z,1.50
2018-08-06T13:20:36.237Z,1.40
2018-08-06T13:23:07.136Z,1.27
2018-08-06T13:25:37.296Z,1.33
2018-08-06T13:28:07.465Z,0.93
2018-08-06T13:30:37.689Z,1.10
2018-08-06T13:33:07.914Z,0.97
2018-08-06T13:35:38.021Z,0.70
2018-08-06T13:38:08.215Z,1.00
2018-08-06T13:40:39.540Z,0.87
2018-08-06T13:43:09.814Z,1.10
2018-08-06T13:45:40.149Z,1.00
2018-08-06T13:48:10.310Z,1.10
2018-08-06T13:50:40.590Z,0.93
2018-08-06T13:53:11.027Z,1.30
2018-08-06T13:55:41.104Z,1.30
2018-08-06T13:58:11.271Z,1.43
2018-08-06T14:00:41.476Z,1.37
2018-08-06T14:03:11.583Z,1.30
2018-08-06T14:05:41.801Z,1.60
2018-08-06T14:08:11.982Z,1.87
2018-08-06T14:10:42.347Z,1.60
2018-08-06T14:13:12.895Z,1.40
2018-08-06T14:15:43.075Z,1.20
2018-08-06T14:18:13.110Z,1.33
2018-08-06T14:20:43.247Z,1.00
2018-08-06T14:23:13.472Z,1.50
2018-08-06T14:25:43.568Z,1.47
2018-08-06T14:28:13.786Z,1.40
2018-08-06T14:30:43.851Z,1.60
2018-08-06T14:33:14.096Z,1.50
2018-08-06T14:35:44.294Z,1.67
2018-08-06T14:38:14.334Z,1.63
2018-08-06T14:40:44.453Z,1.30
2018-08-06T14:43:14.904Z,1.10
2018-08-06T14:45:45.215Z,1.47
2018-08-06T14:48:15.302Z,1.23
2018-08-06T14:50:45.403Z,1.60
2018-08-06T14:53:15.492Z,1.37
2018-08-06T14:55:45.608Z,1.33
2018-08-06T14:58:15.764Z,1.60
2018-08-06T15:00:46.050Z,1.20
2018-08-06T15:03:16.161Z,1.43
2018-08-06T15:05:46.292Z,1.50
2018-08-06T15:08:17.003Z,1.40
2018-08-06T15:10:47.109Z,1.60
2018-08-06T15:13:17.575Z,1.67
2018-08-06T15:15:47.908Z,1.20
2018-08-06T15:18:18.088Z,1.20
2018-08-06T15:20:48.212Z,1.40
2018-08-06T15:23:18.402Z,1.57
2018-08-06T15:25:48.672Z,1.20
2018-08-06T15:28:18.784Z,1.53
2018-08-06T15:30:48.926Z,1.60
2018-08-06T15:33:19.051Z,1.70
2018-08-06T15:35:49.218Z,1.80
2018-08-06T15:38:19.388Z,1.70
2018-08-06T15:40:49.646Z,1.80
2018-08-06T15:43:19.756Z,1.80
2018-08-06T15:45:49.904Z,1.52
2018-08-06T15:48:19.949Z,1.50
2018-08-06T15:50:50.100Z,1.50
2018-08-06T15:53:20.222Z,1.40
2018-08-06T15:55:50.270Z,1.77
2018-08-06T15:58:20.342Z,1.70
2018-08-06T16:00:50.582Z,1.65
2018-08-06T16:03:20.797Z,1.43
2018-08-06T16:05:51.005Z,1.30
2018-08-06T16:08:21.100Z,1.27
2018-08-06T16:10:51.240Z,1.23
2018-08-06T16:13:22.112Z,1.40
2018-08-06T16:15:52.298Z,1.47
2018-08-06T16:18:22.465Z,1.43
2018-08-06T16:20:52.546Z,1.23
2018-08-06T16:23:22.743Z,1.43
2018-08-06T16:25:52.921Z,1.20
2018-08-06T16:28:23.053Z,1.27
2018-08-06T16:30:53.190Z,1.40
2018-08-06T16:33:23.283Z,1.10
2018-08-06T16:35:54.839Z,1.10
2018-08-06T16:38:25.123Z,1.20
2018-08-06T16:40:55.205Z,1.13
2018-08-06T16:43:25.258Z,1.20
2018-08-06T16:45:55.515Z,0.80
2018-08-06T16:48:25.790Z,1.13
2018-08-06T16:50:55.883Z,0.83
2018-08-06T16:53:26.185Z,0.90
2018-08-06T16:55:56.265Z,0.77
2018-08-06T16:58:26.364Z,0.90
2018-08-06T17:00:56.632Z,0.80
2018-08-06T17:03:26.734Z,0.93
2018-08-06T17:05:56.875Z,1.10
2018-08-06T17:08:28.183Z,1.10
2018-08-06T17:10:58.409Z,0.90
2018-08-06T17:13:28.534Z,0.70
2018-08-06T17:15:58.714Z,0.60
2018-08-06T17:18:28.866Z,0.80
2018-08-06T17:20:59.035Z,0.63
2018-08-06T17:23:29.256Z,0.80
2018-08-06T17:25:59.493Z,0.60
2018-08-06T17:28:29.587Z,0.80
2018-08-06T17:30:59.771Z,0.63
2018-08-06T17:33:30.054Z,0.60
2018-08-06T17:36:00.187Z,0.53
2018-08-06T17:38:30.480Z,0.60
2018-08-06T17:41:01.391Z,0.60
2018-08-06T17:43:31.587Z,0.40
2018-08-06T17:46:01.778Z,0.60
2018-08-06T17:48:31.897Z,0.50
2018-08-06T17:51:01.954Z,0.47
2018-08-06T17:53:32.084Z,0.80
2018-08-06T17:56:02.322Z,0.60
2018-08-06T17:58:32.684Z,0.60
2018-08-06T18:01:02.901Z,0.60
2018-08-06T18:03:33.228Z,0.63
2018-08-06T18:06:03.422Z,0.63
2018-08-06T18:08:33.693Z,0.80
2018-08-06T18:11:03.910Z,0.70
2018-08-06T18:13:34.752Z,0.90
2018-08-06T18:16:05.560Z,0.80
2018-08-06T18:18:35.654Z,0.90
2018-08-06T18:21:05.880Z,0.70
2018-08-06T18:23:36.080Z,1.10
2018-08-06T18:26:06.275Z,1.10
2018-08-06T18:28:36.379Z,1.00
2018-08-06T18:31:06.578Z,1.07
2018-08-06T18:33:36.709Z,1.10
2018-08-06T18:36:07.044Z,1.10
2018-08-06T18:38:37.266Z,1.20
2018-08-06T18:41:08.144Z,1.30
2018-08-06T18:43:38.783Z,1.10
2018-08-06T18:46:08.940Z,1.20
2018-08-06T18:48:39.078Z,1.10
2018-08-06T18:51:09.143Z,1.30
2018-08-06T18:53:39.204Z,1.20
2018-08-06T18:56:09.348Z,1.17
2018-08-06T18:58:39.516Z,1.40
2018-08-06T19:01:09.935Z,1.30
2018-08-06T19:03:40.150Z,1.20
2018-08-06T19:06:10.205Z,1.20
2018-08-06T19:08:40.367Z,1.60
2018-08-06T19:11:10.517Z,1.50
2018-08-06T19:13:46.441Z,1.57
2018-08-06T19:16:16.563Z,2.03
2018-08-06T19:18:52.094Z,1.80
2018-08-06T19:21:22.162Z,1.73
2018-08-06T19:23:56.425Z,1.80
2018-08-06T19:26:26.605Z,1.80
2018-08-06T19:28:56.700Z,1.90
2018-08-06T19:31:27.905Z,2.03
2018-08-06T19:33:58.776Z,2.13
2018-08-06T19:36:33.118Z,1.80
2018-08-06T19:39:03.384Z,2.10
2018-08-06T19:41:33.573Z,2.00
2018-08-06T19:44:04.153Z,1.90
2018-08-06T19:46:34.363Z,2.10
2018-08-06T19:49:08.669Z,2.30
2018-08-06T19:51:38.869Z,2.30
2018-08-06T19:54:09.252Z,2.40
2018-08-06T19:56:39.372Z,2.23
2018-08-06T19:59:10.448Z,2.30
2018-08-06T20:01:40.637Z,2.63
2018-08-06T20:04:10.685Z,2.33
2018-08-06T20:06:40.875Z,2.70
2018-08-06T20:09:13.999Z,2.77
2018-08-06T20:11:45.023Z,2.73
2018-08-06T20:14:15.131Z,2.83
2018-08-06T20:16:45.341Z,2.90
2018-08-06T20:19:15.546Z,2.67
2018-08-06T20:21:45.656Z,2.60
2018-08-06T20:24:15.849Z,2.80
2018-08-06T20:26:49.469Z,2.50
2018-08-06T20:29:19.662Z,3.00
2018-08-06T20:31:49.804Z,2.57
2018-08-06T20:34:20.533Z,2.93
2018-08-06T20:36:50.725Z,2.60
2018-08-06T20:39:20.774Z,2.70
2018-08-06T20:41:50.875Z,2.60
2018-08-06T20:44:22.482Z,2.40
2018-08-06T20:46:52.755Z,2.73
2018-08-06T20:49:23.144Z,2.90
2018-08-06T20:51:53.316Z,2.80
2018-08-06T20:54:24.334Z,2.67
2018-08-06T20:56:54.668Z,2.60
2018-08-06T20:59:25.283Z,2.73
2018-08-06T21:01:55.578Z,2.70
2018-08-06T21:04:25.863Z,2.50
2018-08-06T21:06:56.079Z,2.30
2018-08-06T21:09:26.447Z,2.83
2018-08-06T21:11:56.657Z,2.87
2018-08-06T21:14:50.454Z,2.50
2018-08-06T21:17:20.732Z,3.03
2018-08-06T21:19:50.733Z,2.73
2018-08-06T21:22:32.448Z,2.70
2018-08-06T21:25:02.527Z,3.13
2018-08-06T21:27:32.646Z,3.20
2018-08-06T21:30:02.874Z,3.20
2018-08-06T21:32:33.003Z,3.40
2018-08-06T21:35:03.122Z,2.80
2018-08-06T21:37:33.302Z,3.07
2018-08-06T21:40:03.566Z,3.00
2018-08-06T21:42:33.717Z,3.40
2018-08-06T21:45:03.812Z,3.13
2018-08-06T21:47:34.015Z,3.03
2018-08-06T21:50:08.201Z,3.20
2018-08-06T21:52:38.332Z,3.07
2018-08-06T21:55:09.221Z,3.07
2018-08-06T21:57:39.613Z,3.13
2018-08-06T22:00:32.229Z,3.00
2018-08-06T22:03:04.421Z,3.20
2018-08-06T22:05:34.854Z,3.17
2018-08-06T22:08:04.981Z,3.20
2018-08-06T22:10:35.129Z,2.80
2018-08-06T22:13:05.769Z,3.40
2018-08-06T22:15:35.802Z,3.47
2018-08-06T22:18:06.740Z,3.40
2018-08-06T22:20:37.424Z,3.37
2018-08-06T22:23:08.111Z,3.20
2018-08-06T22:25:38.371Z,3.30
2018-08-06T22:28:12.021Z,3.57
2018-08-06T22:30:43.068Z,3.30
2018-08-06T22:33:13.215Z,3.57
2018-08-06T22:35:43.407Z,3.73
2018-08-06T22:38:13.678Z,4.07
2018-08-06T22:40:43.910Z,3.57
2018-08-06T22:43:14.025Z,3.30
2018-08-06T22:45:46.147Z,2.93
2018-08-06T22:48:16.377Z,3.47
2018-08-06T22:50:46.467Z,3.43
2018-08-06T22:53:16.602Z,3.10
2018-08-06T22:56:00.234Z,3.03
2018-08-06T22:58:30.434Z,3.43
2018-08-06T23:01:00.862Z,3.13
2018-08-06T23:03:31.638Z,2.90
2018-08-06T23:06:01.936Z,2.90
2018-08-06T23:08:32.165Z,3.30
2018-08-06T23:11:02.263Z,3.23
2018-08-06T23:13:32.438Z,3.20
2018-08-06T23:16:02.645Z,3.00
2018-08-06T23:18:32.817Z,3.20
2018-08-06T23:21:02.950Z,3.30
2018-08-06T23:23:33.062Z,3.60
2018-08-06T23:26:03.322Z,3.30
2018-08-06T23:28:33.432Z,2.77
2018-08-06T23:31:04.418Z,3.07
2018-08-06T23:33:34.801Z,2.97
2018-08-06T23:36:05.043Z,3.23
2018-08-06T23:38:35.156Z,3.47
2018-08-06T23:41:06.332Z,3.63
2018-08-06T23:43:36.429Z,2.97
2018-08-06T23:46:07.233Z,2.80
2018-08-06T23:48:37.468Z,3.03
2018-08-06T23:51:08.571Z,3.17
2018-08-06T23:53:38.702Z,3.00
2018-08-06T23:56:08.758Z,3.43
2018-08-06T23:58:38.879Z,3.30
